sensor_id;sensor_type;location;lat;lon;timestamp;temperature;humidity
52075;DHT22;38075;53.172;5.446;2022-07-29T00:02:22;14.50;59.90
52075;DHT22;38075;53.172;5.446;2022-07-29T00:04:48;14.60;59.10
52075;DHT22;38075;53.172;5.446;2022-07-29T00:07:13;14.60;59.90
52075;DHT22;38075;53.172;5.446;2022-07-29T00:09:39;14.50;60.80
52075;DHT22;38075;53.172;5.446;2022-07-29T00:12:05;14.50;61.10
52075;DHT22;38075;53.172;5.446;2022-07-29T00:14:30;14.50;62.00
52075;DHT22;38075;53.172;5.446;2022-07-29T00:16:56;14.60;61.50
52075;DHT22;38075;53.172;5.446;2022-07-29T00:19:21;14.50;61.10
52075;DHT22;38075;53.172;5.446;2022-07-29T00:21:47;14.60;61.60
52075;DHT22;38075;53.172;5.446;2022-07-29T00:24:12;14.60;60.90
52075;DHT22;38075;53.172;5.446;2022-07-29T00:26:38;14.50;60.70
52075;DHT22;38075;53.172;5.446;2022-07-29T00:29:04;14.50;63.20
52075;DHT22;38075;53.172;5.446;2022-07-29T00:31:30;14.60;61.80
52075;DHT22;38075;53.172;5.446;2022-07-29T00:33:56;14.50;62.30
52075;DHT22;38075;53.172;5.446;2022-07-29T00:36:22;14.50;62.40
52075;DHT22;38075;53.172;5.446;2022-07-29T00:38:48;14.50;64.10
52075;DHT22;38075;53.172;5.446;2022-07-29T00:41:15;14.50;64.00
52075;DHT22;38075;53.172;5.446;2022-07-29T00:43:40;14.50;64.10
52075;DHT22;38075;53.172;5.446;2022-07-29T00:46:06;14.50;65.30
52075;DHT22;38075;53.172;5.446;2022-07-29T00:48:32;14.50;64.00
52075;DHT22;38075;53.172;5.446;2022-07-29T00:51:02;14.50;64.60
52075;DHT22;38075;53.172;5.446;2022-07-29T00:53:29;14.50;65.70
52075;DHT22;38075;53.172;5.446;2022-07-29T00:55:54;14.50;66.50
52075;DHT22;38075;53.172;5.446;2022-07-29T00:58:21;14.50;70.00
52075;DHT22;38075;53.172;5.446;2022-07-29T01:00:47;14.40;70.90
52075;DHT22;38075;53.172;5.446;2022-07-29T01:03:12;14.50;72.40
52075;DHT22;38075;53.172;5.446;2022-07-29T01:05:39;14.40;75.10
52075;DHT22;38075;53.172;5.446;2022-07-29T01:08:06;14.50;73.30
52075;DHT22;38075;53.172;5.446;2022-07-29T01:10:32;14.40;73.40
52075;DHT22;38075;53.172;5.446;2022-07-29T01:12:59;14.50;74.60
52075;DHT22;38075;53.172;5.446;2022-07-29T01:15:27;14.40;76.10
52075;DHT22;38075;53.172;5.446;2022-07-29T01:18:11;14.40;75.90
52075;DHT22;38075;53.172;5.446;2022-07-29T01:30:38;14.40;85.80
52075;DHT22;38075;53.172;5.446;2022-07-29T01:33:11;14.50;86.70
52075;DHT22;38075;53.172;5.446;2022-07-29T01:35:59;14.50;91.00
52075;DHT22;38075;53.172;5.446;2022-07-29T01:38:28;14.50;88.50
52075;DHT22;38075;53.172;5.446;2022-07-29T01:41:06;14.50;88.80
52075;DHT22;38075;53.172;5.446;2022-07-29T01:43:57;14.60;93.70
52075;DHT22;38075;53.172;5.446;2022-07-29T01:46:35;14.50;94.50
52075;DHT22;38075;53.172;5.446;2022-07-29T01:49:15;14.50;94.80
52075;DHT22;38075;53.172;5.446;2022-07-29T01:51:51;14.50;96.30
52075;DHT22;38075;53.172;5.446;2022-07-29T01:54:37;14.50;98.10
52075;DHT22;38075;53.172;5.446;2022-07-29T01:57:04;14.50;98.80
52075;DHT22;38075;53.172;5.446;2022-07-29T01:59:33;14.50;94.80
52075;DHT22;38075;53.172;5.446;2022-07-29T02:02:00;14.60;96.10
52075;DHT22;38075;53.172;5.446;2022-07-29T02:04:27;14.50;94.50
52075;DHT22;38075;53.172;5.446;2022-07-29T02:06:57;14.40;99.10
52075;DHT22;38075;53.172;5.446;2022-07-29T02:09:25;14.40;97.80
52075;DHT22;38075;53.172;5.446;2022-07-29T02:11:53;14.40;97.00
52075;DHT22;38075;53.172;5.446;2022-07-29T02:14:22;14.40;99.90
52075;DHT22;38075;53.172;5.446;2022-07-29T02:16:52;14.40;99.90
52075;DHT22;38075;53.172;5.446;2022-07-29T02:19:19;14.40;99.90
52075;DHT22;38075;53.172;5.446;2022-07-29T02:21:47;14.30;99.90
52075;DHT22;38075;53.172;5.446;2022-07-29T02:24:14;14.40;99.90
52075;DHT22;38075;53.172;5.446;2022-07-29T02:26:43;14.40;99.90
52075;DHT22;38075;53.172;5.446;2022-07-29T02:29:09;14.50;99.90
52075;DHT22;38075;53.172;5.446;2022-07-29T02:31:36;14.40;99.90
52075;DHT22;38075;53.172;5.446;2022-07-29T02:34:06;14.50;99.90
52075;DHT22;38075;53.172;5.446;2022-07-29T02:36:32;14.70;99.90
52075;DHT22;38075;53.172;5.446;2022-07-29T02:39:02;14.50;99.90
52075;DHT22;38075;53.172;5.446;2022-07-29T02:41:50;14.50;99.90
52075;DHT22;38075;53.172;5.446;2022-07-29T02:44:21;14.50;99.90
52075;DHT22;38075;53.172;5.446;2022-07-29T02:49:38;14.60;99.90
52075;DHT22;38075;53.172;5.446;2022-07-29T02:52:11;14.60;99.90
52075;DHT22;38075;53.172;5.446;2022-07-29T02:57:09;14.60;99.90
52075;DHT22;38075;53.172;5.446;2022-07-29T02:59:37;14.60;99.90
52075;DHT22;38075;53.172;5.446;2022-07-29T03:02:07;14.60;99.90
52075;DHT22;38075;53.172;5.446;2022-07-29T03:04:34;14.50;99.90
52075;DHT22;38075;53.172;5.446;2022-07-29T03:07:01;14.60;99.90
52075;DHT22;38075;53.172;5.446;2022-07-29T03:09:27;14.50;99.90
52075;DHT22;38075;53.172;5.446;2022-07-29T03:11:54;14.50;99.90
52075;DHT22;38075;53.172;5.446;2022-07-29T03:14:20;14.50;99.90
52075;DHT22;38075;53.172;5.446;2022-07-29T03:16:48;14.50;99.90
52075;DHT22;38075;53.172;5.446;2022-07-29T03:19:15;14.60;99.90
52075;DHT22;38075;53.172;5.446;2022-07-29T03:21:41;14.60;99.90
52075;DHT22;38075;53.172;5.446;2022-07-29T03:24:06;14.80;99.90
52075;DHT22;38075;53.172;5.446;2022-07-29T03:26:32;14.60;99.90
52075;DHT22;38075;53.172;5.446;2022-07-29T03:28:58;14.60;99.90
52075;DHT22;38075;53.172;5.446;2022-07-29T03:31:23;14.70;99.90
52075;DHT22;38075;53.172;5.446;2022-07-29T03:33:49;14.60;99.90
52075;DHT22;38075;53.172;5.446;2022-07-29T03:36:14;14.60;99.90
52075;DHT22;38075;53.172;5.446;2022-07-29T03:38:42;14.70;99.90
52075;DHT22;38075;53.172;5.446;2022-07-29T03:41:11;14.70;99.90
52075;DHT22;38075;53.172;5.446;2022-07-29T03:43:40;14.50;99.90
52075;DHT22;38075;53.172;5.446;2022-07-29T03:46:07;14.60;99.90
52075;DHT22;38075;53.172;5.446;2022-07-29T03:48:36;14.50;99.90
52075;DHT22;38075;53.172;5.446;2022-07-29T03:51:03;14.50;99.90
52075;DHT22;38075;53.172;5.446;2022-07-29T03:53:29;14.60;99.90
52075;DHT22;38075;53.172;5.446;2022-07-29T03:55:58;14.50;99.90
52075;DHT22;38075;53.172;5.446;2022-07-29T03:58:26;14.50;99.90
52075;DHT22;38075;53.172;5.446;2022-07-29T04:00:52;14.50;99.90
52075;DHT22;38075;53.172;5.446;2022-07-29T04:03:19;14.50;99.90
52075;DHT22;38075;53.172;5.446;2022-07-29T04:05:45;14.50;99.90
52075;DHT22;38075;53.172;5.446;2022-07-29T04:08:22;14.50;99.90
52075;DHT22;38075;53.172;5.446;2022-07-29T04:10:48;14.60;99.90
52075;DHT22;38075;53.172;5.446;2022-07-29T04:13:13;14.50;99.90
52075;DHT22;38075;53.172;5.446;2022-07-29T04:15:39;14.70;99.90
52075;DHT22;38075;53.172;5.446;2022-07-29T04:18:05;14.60;99.90
52075;DHT22;38075;53.172;5.446;2022-07-29T04:20:31;14.80;99.90
52075;DHT22;38075;53.172;5.446;2022-07-29T04:22:56;14.60;99.90
52075;DHT22;38075;53.172;5.446;2022-07-29T04:25:22;14.70;99.90
52075;DHT22;38075;53.172;5.446;2022-07-29T04:27:48;14.70;99.90
52075;DHT22;38075;53.172;5.446;2022-07-29T04:30:25;14.80;99.90
52075;DHT22;38075;53.172;5.446;2022-07-29T04:32:51;14.80;99.90
52075;DHT22;38075;53.172;5.446;2022-07-29T04:35:20;14.80;99.90
52075;DHT22;38075;53.172;5.446;2022-07-29T04:37:46;14.90;99.90
52075;DHT22;38075;53.172;5.446;2022-07-29T04:40:14;14.90;99.90
52075;DHT22;38075;53.172;5.446;2022-07-29T04:42:39;14.90;99.90
52075;DHT22;38075;53.172;5.446;2022-07-29T04:45:06;15.00;99.90
52075;DHT22;38075;53.172;5.446;2022-07-29T04:47:31;15.10;99.90
52075;DHT22;38075;53.172;5.446;2022-07-29T04:49:57;15.20;99.90
52075;DHT22;38075;53.172;5.446;2022-07-29T04:52:23;15.20;99.90
52075;DHT22;38075;53.172;5.446;2022-07-29T04:54:49;15.20;99.90
52075;DHT22;38075;53.172;5.446;2022-07-29T04:57:14;15.20;99.90
52075;DHT22;38075;53.172;5.446;2022-07-29T04:59:40;15.60;99.90
52075;DHT22;38075;53.172;5.446;2022-07-29T05:02:05;15.40;99.90
52075;DHT22;38075;53.172;5.446;2022-07-29T05:04:31;15.40;99.90
52075;DHT22;38075;53.172;5.446;2022-07-29T05:06:57;15.50;98.80
52075;DHT22;38075;53.172;5.446;2022-07-29T05:09:22;15.50;99.30
52075;DHT22;38075;53.172;5.446;2022-07-29T05:11:48;15.60;97.20
52075;DHT22;38075;53.172;5.446;2022-07-29T05:14:14;15.70;96.60
52075;DHT22;38075;53.172;5.446;2022-07-29T05:16:39;15.70;96.00
52075;DHT22;38075;53.172;5.446;2022-07-29T05:19:05;15.80;96.00
52075;DHT22;38075;53.172;5.446;2022-07-29T05:21:31;15.80;95.40
52075;DHT22;38075;53.172;5.446;2022-07-29T05:23:57;15.80;95.20
52075;DHT22;38075;53.172;5.446;2022-07-29T05:26:22;15.80;94.20
52075;DHT22;38075;53.172;5.446;2022-07-29T05:28:48;15.90;93.70
52075;DHT22;38075;53.172;5.446;2022-07-29T05:31:15;16.00;92.80
52075;DHT22;38075;53.172;5.446;2022-07-29T05:36:14;16.00;91.10
52075;DHT22;38075;53.172;5.446;2022-07-29T05:38:40;16.00;90.30
52075;DHT22;38075;53.172;5.446;2022-07-29T05:41:06;16.20;89.90
52075;DHT22;38075;53.172;5.446;2022-07-29T05:43:32;16.30;88.60
52075;DHT22;38075;53.172;5.446;2022-07-29T05:46:00;16.50;85.90
52075;DHT22;38075;53.172;5.446;2022-07-29T05:48:26;17.40;82.40
52075;DHT22;38075;53.172;5.446;2022-07-29T05:50:52;18.00;78.10
52075;DHT22;38075;53.172;5.446;2022-07-29T05:53:18;18.20;76.60
52075;DHT22;38075;53.172;5.446;2022-07-29T05:55:43;18.40;69.90
52075;DHT22;38075;53.172;5.446;2022-07-29T05:58:09;18.50;65.80
52075;DHT22;38075;53.172;5.446;2022-07-29T06:00:35;18.40;62.00
52075;DHT22;38075;53.172;5.446;2022-07-29T06:03:00;18.50;59.50
52075;DHT22;38075;53.172;5.446;2022-07-29T06:05:26;18.50;57.00
52075;DHT22;38075;53.172;5.446;2022-07-29T06:07:52;18.50;54.60
52075;DHT22;38075;53.172;5.446;2022-07-29T06:10:18;18.30;53.40
52075;DHT22;38075;53.172;5.446;2022-07-29T06:12:44;18.00;52.70
52075;DHT22;38075;53.172;5.446;2022-07-29T06:15:10;17.80;51.30
52075;DHT22;38075;53.172;5.446;2022-07-29T06:17:36;17.70;50.90
52075;DHT22;38075;53.172;5.446;2022-07-29T06:20:02;17.70;50.80
52075;DHT22;38075;53.172;5.446;2022-07-29T06:22:31;17.70;50.80
52075;DHT22;38075;53.172;5.446;2022-07-29T06:24:56;17.60;50.70
52075;DHT22;38075;53.172;5.446;2022-07-29T06:27:22;17.70;50.30
52075;DHT22;38075;53.172;5.446;2022-07-29T06:29:47;17.50;49.70
52075;DHT22;38075;53.172;5.446;2022-07-29T06:32:13;17.50;49.80
52075;DHT22;38075;53.172;5.446;2022-07-29T06:34:39;17.50;48.60
52075;DHT22;38075;53.172;5.446;2022-07-29T06:37:08;17.40;49.10
52075;DHT22;38075;53.172;5.446;2022-07-29T06:39:37;17.50;47.80
52075;DHT22;38075;53.172;5.446;2022-07-29T06:42:04;17.60;46.70
52075;DHT22;38075;53.172;5.446;2022-07-29T06:44:31;17.60;47.80
52075;DHT22;38075;53.172;5.446;2022-07-29T06:47:01;17.60;46.40
52075;DHT22;38075;53.172;5.446;2022-07-29T06:49:27;17.80;46.10
52075;DHT22;38075;53.172;5.446;2022-07-29T06:51:54;17.80;43.90
52075;DHT22;38075;53.172;5.446;2022-07-29T06:54:20;17.70;43.40
52075;DHT22;38075;53.172;5.446;2022-07-29T06:56:45;17.90;43.70
52075;DHT22;38075;53.172;5.446;2022-07-29T06:59:12;17.90;42.90
52075;DHT22;38075;53.172;5.446;2022-07-29T07:01:39;17.80;40.90
52075;DHT22;38075;53.172;5.446;2022-07-29T07:06:40;17.90;39.70
52075;DHT22;38075;53.172;5.446;2022-07-29T07:09:06;17.80;40.50
52075;DHT22;38075;53.172;5.446;2022-07-29T07:11:31;17.90;39.20
52075;DHT22;38075;53.172;5.446;2022-07-29T07:13:57;17.80;39.40
52075;DHT22;38075;53.172;5.446;2022-07-29T07:16:23;17.90;40.20
52075;DHT22;38075;53.172;5.446;2022-07-29T07:18:48;17.90;40.40
52075;DHT22;38075;53.172;5.446;2022-07-29T07:21:14;17.80;39.80
52075;DHT22;38075;53.172;5.446;2022-07-29T07:23:40;17.90;39.00
52075;DHT22;38075;53.172;5.446;2022-07-29T07:26:05;17.80;39.20
52075;DHT22;38075;53.172;5.446;2022-07-29T07:28:31;17.80;39.10
52075;DHT22;38075;53.172;5.446;2022-07-29T07:30:57;17.80;38.40
52075;DHT22;38075;53.172;5.446;2022-07-29T07:33:22;18.00;38.40
52075;DHT22;38075;53.172;5.446;2022-07-29T07:35:48;17.90;38.60
52075;DHT22;38075;53.172;5.446;2022-07-29T07:38:14;17.90;38.10
52075;DHT22;38075;53.172;5.446;2022-07-29T07:40:40;18.00;37.80
52075;DHT22;38075;53.172;5.446;2022-07-29T07:43:06;18.00;41.40
52075;DHT22;38075;53.172;5.446;2022-07-29T07:45:32;18.00;38.80
52075;DHT22;38075;53.172;5.446;2022-07-29T07:48:02;18.10;39.10
52075;DHT22;38075;53.172;5.446;2022-07-29T07:50:31;18.10;38.00
52075;DHT22;38075;53.172;5.446;2022-07-29T07:52:59;18.20;39.70
52075;DHT22;38075;53.172;5.446;2022-07-29T07:55:27;18.20;36.60
52075;DHT22;38075;53.172;5.446;2022-07-29T07:57:54;18.20;36.50
52075;DHT22;38075;53.172;5.446;2022-07-29T08:00:20;18.30;36.10
52075;DHT22;38075;53.172;5.446;2022-07-29T08:02:46;18.40;35.90
52075;DHT22;38075;53.172;5.446;2022-07-29T08:05:13;18.40;36.30
52075;DHT22;38075;53.172;5.446;2022-07-29T08:07:46;18.40;36.30
52075;DHT22;38075;53.172;5.446;2022-07-29T08:10:13;18.40;36.70
52075;DHT22;38075;53.172;5.446;2022-07-29T08:12:39;18.40;35.80
52075;DHT22;38075;53.172;5.446;2022-07-29T08:15:05;18.50;36.10
52075;DHT22;38075;53.172;5.446;2022-07-29T08:17:33;18.50;35.30
52075;DHT22;38075;53.172;5.446;2022-07-29T08:20:02;18.50;35.40
52075;DHT22;38075;53.172;5.446;2022-07-29T08:22:31;18.60;33.60
52075;DHT22;38075;53.172;5.446;2022-07-29T08:24:56;18.80;34.10
52075;DHT22;38075;53.172;5.446;2022-07-29T08:27:22;18.80;34.30
52075;DHT22;38075;53.172;5.446;2022-07-29T08:29:50;18.90;33.30
52075;DHT22;38075;53.172;5.446;2022-07-29T08:32:16;18.90;31.90
52075;DHT22;38075;53.172;5.446;2022-07-29T08:34:42;19.00;31.40
52075;DHT22;38075;53.172;5.446;2022-07-29T08:37:09;19.10;31.60
52075;DHT22;38075;53.172;5.446;2022-07-29T08:39:35;19.20;30.70
52075;DHT22;38075;53.172;5.446;2022-07-29T08:42:00;19.30;30.90
52075;DHT22;38075;53.172;5.446;2022-07-29T08:44:26;19.40;30.60
52075;DHT22;38075;53.172;5.446;2022-07-29T08:46:52;19.60;29.90
52075;DHT22;38075;53.172;5.446;2022-07-29T08:49:17;19.50;29.30
52075;DHT22;38075;53.172;5.446;2022-07-29T08:51:44;19.60;28.30
52075;DHT22;38075;53.172;5.446;2022-07-29T08:54:09;19.60;28.40
52075;DHT22;38075;53.172;5.446;2022-07-29T08:56:36;19.50;28.40
52075;DHT22;38075;53.172;5.446;2022-07-29T08:59:04;19.50;28.30
52075;DHT22;38075;53.172;5.446;2022-07-29T09:01:32;19.50;28.20
52075;DHT22;38075;53.172;5.446;2022-07-29T09:03:59;19.50;27.30
52075;DHT22;38075;53.172;5.446;2022-07-29T09:06:30;19.40;27.40
52075;DHT22;38075;53.172;5.446;2022-07-29T09:08:58;19.40;28.20
52075;DHT22;38075;53.172;5.446;2022-07-29T09:11:25;19.30;27.60
52075;DHT22;38075;53.172;5.446;2022-07-29T09:13:50;19.30;27.10
52075;DHT22;38075;53.172;5.446;2022-07-29T09:16:16;19.20;27.00
52075;DHT22;38075;53.172;5.446;2022-07-29T09:18:43;19.10;26.80
52075;DHT22;38075;53.172;5.446;2022-07-29T09:21:14;19.10;27.00
52075;DHT22;38075;53.172;5.446;2022-07-29T09:26:31;19.10;27.10
52075;DHT22;38075;53.172;5.446;2022-07-29T09:28:58;19.10;26.30
52075;DHT22;38075;53.172;5.446;2022-07-29T09:31:35;19.00;26.00
52075;DHT22;38075;53.172;5.446;2022-07-29T09:34:01;19.00;26.50
52075;DHT22;38075;53.172;5.446;2022-07-29T09:36:28;19.10;26.40
52075;DHT22;38075;53.172;5.446;2022-07-29T09:39:01;19.10;26.10
52075;DHT22;38075;53.172;5.446;2022-07-29T09:41:28;19.10;26.40
52075;DHT22;38075;53.172;5.446;2022-07-29T09:43:55;19.10;26.50
52075;DHT22;38075;53.172;5.446;2022-07-29T09:46:21;19.00;26.20
52075;DHT22;38075;53.172;5.446;2022-07-29T09:49:09;19.10;26.10
52075;DHT22;38075;53.172;5.446;2022-07-29T09:51:35;19.10;27.30
52075;DHT22;38075;53.172;5.446;2022-07-29T09:54:00;19.20;27.00
52075;DHT22;38075;53.172;5.446;2022-07-29T09:56:42;19.20;27.90
52075;DHT22;38075;53.172;5.446;2022-07-29T09:59:09;19.20;28.30
52075;DHT22;38075;53.172;5.446;2022-07-29T10:01:36;19.10;28.20
52075;DHT22;38075;53.172;5.446;2022-07-29T10:04:02;19.10;28.40
52075;DHT22;38075;53.172;5.446;2022-07-29T10:06:31;19.10;29.70
52075;DHT22;38075;53.172;5.446;2022-07-29T10:09:11;19.10;32.10
52075;DHT22;38075;53.172;5.446;2022-07-29T10:11:36;19.10;36.20
52075;DHT22;38075;53.172;5.446;2022-07-29T10:14:03;19.30;36.60
52075;DHT22;38075;53.172;5.446;2022-07-29T10:16:29;19.10;36.50
52075;DHT22;38075;53.172;5.446;2022-07-29T10:19:00;19.00;37.00
52075;DHT22;38075;53.172;5.446;2022-07-29T10:21:27;19.10;40.00
52075;DHT22;38075;53.172;5.446;2022-07-29T10:23:53;19.10;40.70
52075;DHT22;38075;53.172;5.446;2022-07-29T10:26:22;19.00;42.90
52075;DHT22;38075;53.172;5.446;2022-07-29T10:28:48;19.00;43.70
52075;DHT22;38075;53.172;5.446;2022-07-29T10:31:28;19.00;43.80
52075;DHT22;38075;53.172;5.446;2022-07-29T10:34:18;19.00;45.90
52075;DHT22;38075;53.172;5.446;2022-07-29T10:37:08;19.00;46.20
52075;DHT22;38075;53.172;5.446;2022-07-29T10:39:56;19.00;46.10
52075;DHT22;38075;53.172;5.446;2022-07-29T10:42:28;18.90;47.60
52075;DHT22;38075;53.172;5.446;2022-07-29T10:44:54;18.90;47.80
52075;DHT22;38075;53.172;5.446;2022-07-29T10:47:27;18.70;48.40
52075;DHT22;38075;53.172;5.446;2022-07-29T10:50:02;18.90;49.00
52075;DHT22;38075;53.172;5.446;2022-07-29T10:55:48;18.90;51.20
52075;DHT22;38075;53.172;5.446;2022-07-29T10:58:19;18.90;54.10
52075;DHT22;38075;53.172;5.446;2022-07-29T11:00:51;18.80;53.70
52075;DHT22;38075;53.172;5.446;2022-07-29T11:03:42;18.80;55.00
52075;DHT22;38075;53.172;5.446;2022-07-29T11:06:07;18.80;56.80
52075;DHT22;38075;53.172;5.446;2022-07-29T11:08:33;18.70;58.90
52075;DHT22;38075;53.172;5.446;2022-07-29T11:13:51;18.90;61.00
52075;DHT22;38075;53.172;5.446;2022-07-29T11:16:19;18.90;59.50
52075;DHT22;38075;53.172;5.446;2022-07-29T11:21:36;18.90;60.10
52075;DHT22;38075;53.172;5.446;2022-07-29T11:26:38;19.00;59.30
52075;DHT22;38075;53.172;5.446;2022-07-29T11:29:19;19.00;58.80
52075;DHT22;38075;53.172;5.446;2022-07-29T11:31:46;19.00;59.10
52075;DHT22;38075;53.172;5.446;2022-07-29T11:34:29;18.90;59.20
52075;DHT22;38075;53.172;5.446;2022-07-29T11:39:35;19.00;59.10
52075;DHT22;38075;53.172;5.446;2022-07-29T11:45:10;19.10;55.20
52075;DHT22;38075;53.172;5.446;2022-07-29T11:47:48;19.10;56.20
52075;DHT22;38075;53.172;5.446;2022-07-29T11:50:33;19.10;51.80
52075;DHT22;38075;53.172;5.446;2022-07-29T11:53:00;19.20;49.30
52075;DHT22;38075;53.172;5.446;2022-07-29T11:55:27;19.20;52.80
52075;DHT22;38075;53.172;5.446;2022-07-29T11:57:58;19.20;48.50
52075;DHT22;38075;53.172;5.446;2022-07-29T12:02:53;19.20;49.40
52075;DHT22;38075;53.172;5.446;2022-07-29T12:05:20;19.30;49.40
52075;DHT22;38075;53.172;5.446;2022-07-29T12:07:47;19.40;49.00
52075;DHT22;38075;53.172;5.446;2022-07-29T12:10:13;19.50;49.20
52075;DHT22;38075;53.172;5.446;2022-07-29T12:12:39;19.60;49.00
52075;DHT22;38075;53.172;5.446;2022-07-29T12:15:14;19.60;48.80
52075;DHT22;38075;53.172;5.446;2022-07-29T12:17:40;19.60;46.90
52075;DHT22;38075;53.172;5.446;2022-07-29T12:20:06;19.80;47.80
52075;DHT22;38075;53.172;5.446;2022-07-29T12:22:33;19.80;49.10
52075;DHT22;38075;53.172;5.446;2022-07-29T12:25:05;20.00;48.90
52075;DHT22;38075;53.172;5.446;2022-07-29T12:27:31;20.10;50.30
52075;DHT22;38075;53.172;5.446;2022-07-29T12:30:00;20.10;49.40
52075;DHT22;38075;53.172;5.446;2022-07-29T12:32:37;20.20;49.30
52075;DHT22;38075;53.172;5.446;2022-07-29T12:35:05;20.30;45.40
52075;DHT22;38075;53.172;5.446;2022-07-29T12:37:33;20.60;48.00
52075;DHT22;38075;53.172;5.446;2022-07-29T12:39:59;20.70;45.70
52075;DHT22;38075;53.172;5.446;2022-07-29T12:42:25;20.80;45.10
52075;DHT22;38075;53.172;5.446;2022-07-29T12:44:51;21.30;43.00
52075;DHT22;38075;53.172;5.446;2022-07-29T12:47:18;21.90;38.50
52075;DHT22;38075;53.172;5.446;2022-07-29T12:49:44;22.50;35.20
52075;DHT22;38075;53.172;5.446;2022-07-29T12:52:30;22.80;32.30
52075;DHT22;38075;53.172;5.446;2022-07-29T12:54:56;23.20;29.60
52075;DHT22;38075;53.172;5.446;2022-07-29T12:57:22;23.30;28.10
52075;DHT22;38075;53.172;5.446;2022-07-29T13:02:33;23.40;26.60
52075;DHT22;38075;53.172;5.446;2022-07-29T13:05:00;23.40;25.60
52075;DHT22;38075;53.172;5.446;2022-07-29T13:07:28;23.60;25.10
52075;DHT22;38075;53.172;5.446;2022-07-29T13:10:10;23.60;23.70
52075;DHT22;38075;53.172;5.446;2022-07-29T13:12:35;23.50;23.80
52075;DHT22;38075;53.172;5.446;2022-07-29T13:15:12;23.00;22.60
52075;DHT22;38075;53.172;5.446;2022-07-29T13:17:43;23.30;23.20
52075;DHT22;38075;53.172;5.446;2022-07-29T13:20:12;23.10;22.80
52075;DHT22;38075;53.172;5.446;2022-07-29T13:22:39;23.10;23.00
52075;DHT22;38075;53.172;5.446;2022-07-29T13:25:05;23.20;23.20
52075;DHT22;38075;53.172;5.446;2022-07-29T13:27:36;23.20;22.70
52075;DHT22;38075;53.172;5.446;2022-07-29T13:30:05;23.60;22.80
52075;DHT22;38075;53.172;5.446;2022-07-29T13:32:31;23.50;22.50
52075;DHT22;38075;53.172;5.446;2022-07-29T13:35:01;23.50;22.50
52075;DHT22;38075;53.172;5.446;2022-07-29T13:37:27;23.20;22.40
52075;DHT22;38075;53.172;5.446;2022-07-29T13:39:55;23.40;22.80
52075;DHT22;38075;53.172;5.446;2022-07-29T13:42:21;23.70;23.50
52075;DHT22;38075;53.172;5.446;2022-07-29T13:44:47;23.50;23.40
52075;DHT22;38075;53.172;5.446;2022-07-29T13:47:16;23.70;23.70
52075;DHT22;38075;53.172;5.446;2022-07-29T13:49:42;23.60;23.20
52075;DHT22;38075;53.172;5.446;2022-07-29T13:52:07;23.50;22.70
52075;DHT22;38075;53.172;5.446;2022-07-29T13:54:33;23.80;23.50
52075;DHT22;38075;53.172;5.446;2022-07-29T13:57:03;23.80;23.60
52075;DHT22;38075;53.172;5.446;2022-07-29T13:59:31;23.60;23.20
52075;DHT22;38075;53.172;5.446;2022-07-29T14:02:00;23.80;23.70
52075;DHT22;38075;53.172;5.446;2022-07-29T14:04:26;23.90;22.90
52075;DHT22;38075;53.172;5.446;2022-07-29T14:06:51;23.90;23.70
52075;DHT22;38075;53.172;5.446;2022-07-29T14:09:17;23.70;23.50
52075;DHT22;38075;53.172;5.446;2022-07-29T14:11:43;23.70;23.50
52075;DHT22;38075;53.172;5.446;2022-07-29T14:14:08;23.80;23.40
52075;DHT22;38075;53.172;5.446;2022-07-29T14:16:35;23.80;23.50
52075;DHT22;38075;53.172;5.446;2022-07-29T14:19:01;23.80;23.40
52075;DHT22;38075;53.172;5.446;2022-07-29T14:21:27;23.80;23.40
52075;DHT22;38075;53.172;5.446;2022-07-29T14:23:53;23.70;23.50
52075;DHT22;38075;53.172;5.446;2022-07-29T14:26:20;23.80;22.90
52075;DHT22;38075;53.172;5.446;2022-07-29T14:28:46;23.60;23.20
52075;DHT22;38075;53.172;5.446;2022-07-29T14:31:12;23.80;23.20
52075;DHT22;38075;53.172;5.446;2022-07-29T14:33:38;23.60;23.10
52075;DHT22;38075;53.172;5.446;2022-07-29T14:36:03;23.60;22.80
52075;DHT22;38075;53.172;5.446;2022-07-29T14:38:29;23.80;23.50
52075;DHT22;38075;53.172;5.446;2022-07-29T14:40:55;23.70;23.70
52075;DHT22;38075;53.172;5.446;2022-07-29T14:43:20;23.90;24.00
52075;DHT22;38075;53.172;5.446;2022-07-29T14:45:46;23.90;24.30
52075;DHT22;38075;53.172;5.446;2022-07-29T14:48:11;23.90;24.00
52075;DHT22;38075;53.172;5.446;2022-07-29T14:50:37;23.90;23.90
52075;DHT22;38075;53.172;5.446;2022-07-29T14:53:03;23.90;24.10
52075;DHT22;38075;53.172;5.446;2022-07-29T14:55:32;24.10;23.80
52075;DHT22;38075;53.172;5.446;2022-07-29T14:57:58;24.50;22.90
52075;DHT22;38075;53.172;5.446;2022-07-29T15:00:25;24.60;23.00
52075;DHT22;38075;53.172;5.446;2022-07-29T15:02:50;24.70;23.60
52075;DHT22;38075;53.172;5.446;2022-07-29T15:05:17;24.60;23.60
52075;DHT22;38075;53.172;5.446;2022-07-29T15:07:44;24.40;22.00
52075;DHT22;38075;53.172;5.446;2022-07-29T15:10:10;24.30;21.80
52075;DHT22;38075;53.172;5.446;2022-07-29T15:12:35;24.10;22.20
52075;DHT22;38075;53.172;5.446;2022-07-29T15:15:01;24.30;22.90
52075;DHT22;38075;53.172;5.446;2022-07-29T15:17:27;24.30;22.80
52075;DHT22;38075;53.172;5.446;2022-07-29T15:19:52;24.20;22.30
52075;DHT22;38075;53.172;5.446;2022-07-29T15:22:18;24.10;21.80
52075;DHT22;38075;53.172;5.446;2022-07-29T15:24:44;24.10;22.60
52075;DHT22;38075;53.172;5.446;2022-07-29T15:27:10;23.90;23.40
52075;DHT22;38075;53.172;5.446;2022-07-29T15:29:44;23.90;23.40
52075;DHT22;38075;53.172;5.446;2022-07-29T15:32:10;24.00;23.60
52075;DHT22;38075;53.172;5.446;2022-07-29T15:34:36;24.00;23.70
52075;DHT22;38075;53.172;5.446;2022-07-29T15:37:02;23.90;23.40
52075;DHT22;38075;53.172;5.446;2022-07-29T15:39:28;23.80;23.70
52075;DHT22;38075;53.172;5.446;2022-07-29T15:41:56;23.60;24.10
52075;DHT22;38075;53.172;5.446;2022-07-29T15:44:24;23.50;24.60
52075;DHT22;38075;53.172;5.446;2022-07-29T15:46:50;23.60;25.00
52075;DHT22;38075;53.172;5.446;2022-07-29T15:49:38;23.70;25.20
52075;DHT22;38075;53.172;5.446;2022-07-29T15:52:06;23.40;25.80
52075;DHT22;38075;53.172;5.446;2022-07-29T15:54:34;23.40;26.80
52075;DHT22;38075;53.172;5.446;2022-07-29T15:57:00;23.20;26.70
52075;DHT22;38075;53.172;5.446;2022-07-29T15:59:26;23.20;27.20
52075;DHT22;38075;53.172;5.446;2022-07-29T16:01:52;23.20;27.50
52075;DHT22;38075;53.172;5.446;2022-07-29T16:04:21;23.20;28.00
52075;DHT22;38075;53.172;5.446;2022-07-29T16:06:47;23.10;27.90
52075;DHT22;38075;53.172;5.446;2022-07-29T16:09:13;23.00;28.60
52075;DHT22;38075;53.172;5.446;2022-07-29T16:11:39;22.90;28.70
52075;DHT22;38075;53.172;5.446;2022-07-29T16:14:07;22.80;29.30
52075;DHT22;38075;53.172;5.446;2022-07-29T16:16:34;22.80;30.00
52075;DHT22;38075;53.172;5.446;2022-07-29T16:19:04;22.80;30.80
52075;DHT22;38075;53.172;5.446;2022-07-29T16:21:29;22.90;30.70